createdAt,value
2023-02-19T00:00:25.116Z,34.44
2023-02-19T00:01:31.331Z,34.46
2023-02-19T00:02:35.040Z,34.43
2023-02-19T00:03:39.368Z,34.48
2023-02-19T00:04:43.092Z,34.50
2023-02-19T00:05:46.678Z,34.53
2023-02-19T00:06:50.620Z,34.56
2023-02-19T00:07:55.946Z,34.52
2023-02-19T00:08:59.865Z,34.55
2023-02-19T00:10:03.518Z,34.55
2023-02-19T00:11:09.360Z,34.18
2023-02-19T00:12:13.222Z,34.50
2023-02-19T00:13:16.948Z,34.51
2023-02-19T00:14:22.178Z,34.51
2023-02-19T00:15:25.844Z,34.47
2023-02-19T00:16:31.292Z,34.47
2023-02-19T00:17:34.926Z,34.47
2023-02-19T00:18:38.651Z,34.50
2023-02-19T00:19:42.285Z,34.54
2023-02-19T00:20:45.951Z,34.56
2023-02-19T00:21:51.623Z,34.60
2023-02-19T00:22:56.901Z,34.58
2023-02-19T00:24:01.737Z,34.58
2023-02-19T00:25:05.554Z,34.57
2023-02-19T00:26:18.264Z,34.58
2023-02-19T00:27:22.343Z,34.61
2023-02-19T00:28:25.969Z,34.64
2023-02-19T00:29:29.618Z,34.65
2023-02-19T00:30:33.743Z,34.64
2023-02-19T00:31:37.459Z,34.59
2023-02-19T00:32:41.323Z,34.68
2023-02-19T00:33:45.059Z,34.72
2023-02-19T00:34:48.662Z,34.70
2023-02-19T00:35:52.323Z,34.74
2023-02-19T00:36:55.977Z,34.70
2023-02-19T00:38:01.268Z,34.78
2023-02-19T00:39:05.553Z,34.74
2023-02-19T00:40:10.090Z,34.81
2023-02-19T00:41:15.027Z,34.78
2023-02-19T00:42:18.685Z,34.80
2023-02-19T00:43:22.564Z,34.80
2023-02-19T00:44:26.191Z,34.86
2023-02-19T00:45:29.792Z,34.89
2023-02-19T00:46:35.008Z,34.59
2023-02-19T00:47:38.633Z,34.97
2023-02-19T00:48:42.496Z,34.98
2023-02-19T00:49:52.975Z,34.97
2023-02-19T00:50:56.560Z,34.95
2023-02-19T00:52:00.224Z,34.93
2023-02-19T00:53:05.550Z,34.95
2023-02-19T00:54:09.228Z,35.00
2023-02-19T00:55:12.823Z,34.99
2023-02-19T00:56:16.793Z,35.03
2023-02-19T00:57:20.426Z,35.07
2023-02-19T00:58:24.056Z,35.07
2023-02-19T00:59:27.788Z,35.12
2023-02-19T01:00:31.423Z,35.13
2023-02-19T01:01:35.120Z,35.22
2023-02-19T01:02:38.798Z,35.18
2023-02-19T01:03:42.665Z,34.97
2023-02-19T01:04:46.468Z,35.13
2023-02-19T01:05:50.404Z,35.11
2023-02-19T01:06:54.083Z,35.12
2023-02-19T01:07:57.743Z,35.13
2023-02-19T01:09:03.670Z,35.12
2023-02-19T01:10:07.839Z,35.07
2023-02-19T01:11:12.210Z,35.20
2023-02-19T01:12:16.113Z,35.27
2023-02-19T01:13:19.813Z,35.30
2023-02-19T01:14:23.478Z,35.28
2023-02-19T01:15:27.206Z,35.29
2023-02-19T01:16:30.910Z,35.32
2023-02-19T01:17:36.952Z,35.35
2023-02-19T01:18:40.918Z,35.26
2023-02-19T01:19:44.637Z,35.26
2023-02-19T01:20:48.325Z,35.30
2023-02-19T01:21:51.992Z,35.16
2023-02-19T01:22:56.012Z,35.35
2023-02-19T01:23:59.829Z,35.45
2023-02-19T01:25:08.682Z,35.49
2023-02-19T01:26:15.863Z,35.52
2023-02-19T01:27:19.500Z,35.48
2023-02-19T01:28:23.173Z,35.49
2023-02-19T01:29:26.927Z,35.50
2023-02-19T01:30:30.660Z,35.48
2023-02-19T01:31:34.578Z,35.15
2023-02-19T01:32:38.273Z,35.18
2023-02-19T01:33:44.718Z,35.38
2023-02-19T01:34:48.339Z,35.41
2023-02-19T01:35:51.972Z,35.44
2023-02-19T01:36:55.595Z,35.45
2023-02-19T01:37:59.372Z,35.54
2023-02-19T01:39:03.835Z,35.55
2023-02-19T01:40:10.253Z,35.21
2023-02-19T01:41:16.209Z,35.54
2023-02-19T01:42:19.778Z,35.55
2023-02-19T01:43:23.459Z,35.45
2023-02-19T01:45:02.910Z,35.58
2023-02-19T01:46:06.662Z,35.66
2023-02-19T01:47:10.218Z,35.64
2023-02-19T01:48:18.312Z,35.61
2023-02-19T01:49:26.696Z,35.37
2023-02-19T01:50:33.047Z,35.67
2023-02-19T01:51:40.384Z,35.76
2023-02-19T01:52:44.030Z,35.77
2023-02-19T01:53:50.681Z,35.75
2023-02-19T01:54:55.745Z,35.80
2023-02-19T01:56:01.922Z,35.82
2023-02-19T01:57:13.015Z,35.88
2023-02-19T01:58:17.325Z,35.84
2023-02-19T01:59:21.046Z,35.70
2023-02-19T02:00:24.726Z,35.89
2023-02-19T02:01:28.447Z,35.95
2023-02-19T02:02:32.270Z,36.04
2023-02-19T02:03:38.703Z,36.09
2023-02-19T02:04:42.588Z,36.14
2023-02-19T02:05:51.370Z,36.11
2023-02-19T02:06:57.225Z,35.97
2023-02-19T02:08:03.540Z,36.10
2023-02-19T02:09:07.183Z,36.21
2023-02-19T02:10:11.171Z,36.26
2023-02-19T02:11:16.550Z,36.29
2023-02-19T02:12:20.167Z,36.28
2023-02-19T02:13:24.078Z,36.31
2023-02-19T02:14:31.982Z,36.27
2023-02-19T02:15:45.851Z,36.32
2023-02-19T02:16:58.632Z,36.36
2023-02-19T02:18:08.051Z,36.38
2023-02-19T02:19:30.862Z,36.44
2023-02-19T02:20:45.748Z,36.47
2023-02-19T02:22:13.222Z,36.54
2023-02-19T02:23:24.782Z,36.49
2023-02-19T02:25:19.123Z,36.45
2023-02-19T02:26:46.702Z,36.55
2023-02-19T02:28:03.035Z,36.36
2023-02-19T02:29:29.167Z,36.67
2023-02-19T02:30:43.420Z,36.67
2023-02-19T02:31:52.361Z,36.68
2023-02-19T02:33:02.363Z,36.69
2023-02-19T02:34:13.074Z,36.72
2023-02-19T02:35:17.180Z,36.75
2023-02-19T02:36:24.265Z,36.79
2023-02-19T02:37:33.040Z,36.88
2023-02-19T02:38:41.107Z,36.89
2023-02-19T02:39:46.670Z,36.87
2023-02-19T02:40:50.497Z,36.96
2023-02-19T02:41:59.082Z,36.95
2023-02-19T02:43:02.721Z,37.00
2023-02-19T02:44:06.601Z,37.01
2023-02-19T02:45:26.590Z,36.81
2023-02-19T02:46:37.700Z,37.00
2023-02-19T02:47:45.375Z,37.03
2023-02-19T02:48:51.947Z,37.01
2023-02-19T02:49:57.214Z,37.02
2023-02-19T02:51:04.741Z,37.02
2023-02-19T02:52:08.512Z,37.03
2023-02-19T02:53:17.468Z,36.97
2023-02-19T02:54:27.120Z,36.91
2023-02-19T02:55:36.986Z,37.04
2023-02-19T02:56:42.391Z,37.02
2023-02-19T02:57:46.224Z,37.04
2023-02-19T02:58:52.021Z,37.06
2023-02-19T02:59:55.741Z,37.06
2023-02-19T03:01:02.473Z,36.99
2023-02-19T03:02:11.503Z,36.97
2023-02-19T03:03:18.289Z,37.11
2023-02-19T03:04:28.068Z,37.15
2023-02-19T03:05:31.938Z,37.21
2023-02-19T03:06:37.977Z,37.04
2023-02-19T03:07:47.795Z,37.26
2023-02-19T03:08:57.495Z,37.16
2023-02-19T03:10:03.601Z,36.97
2023-02-19T03:11:10.068Z,37.13
2023-02-19T03:12:19.525Z,37.24
2023-02-19T03:13:29.503Z,37.25
2023-02-19T03:14:38.704Z,37.30
2023-02-19T03:15:47.760Z,37.26
2023-02-19T03:16:55.503Z,37.11
2023-02-19T03:18:04.789Z,36.96
2023-02-19T03:19:11.674Z,37.06
2023-02-19T03:20:18.687Z,37.01
2023-02-19T03:21:24.741Z,37.31
2023-02-19T03:22:31.888Z,37.41
2023-02-19T03:23:38.053Z,37.52
2023-02-19T03:24:46.392Z,37.53
2023-02-19T03:25:50.303Z,37.54
2023-02-19T03:26:54.296Z,37.57
2023-02-19T03:28:01.237Z,37.57
2023-02-19T03:29:06.443Z,37.58
2023-02-19T03:30:15.376Z,37.69
2023-02-19T03:31:23.405Z,37.68
2023-02-19T03:32:31.204Z,37.65
2023-02-19T03:33:37.299Z,37.52
2023-02-19T03:34:46.410Z,37.60
2023-02-19T03:35:54.310Z,37.58
2023-02-19T03:37:04.653Z,37.62
2023-02-19T03:38:13.945Z,37.62
2023-02-19T03:39:21.432Z,37.48
2023-02-19T03:40:30.259Z,37.73
2023-02-19T03:41:40.783Z,37.74
2023-02-19T03:43:00.042Z,37.67
2023-02-19T03:44:11.815Z,37.68
2023-02-19T03:45:26.937Z,37.57
2023-02-19T03:46:42.237Z,37.80
2023-02-19T03:47:51.929Z,37.83
2023-02-19T03:49:02.398Z,37.72
2023-02-19T03:50:14.903Z,37.87
2023-02-19T03:51:31.756Z,37.94
2023-02-19T03:52:42.547Z,37.95
2023-02-19T03:53:54.609Z,37.91
2023-02-19T03:55:05.068Z,37.97
2023-02-19T03:56:12.498Z,38.07
2023-02-19T03:57:21.893Z,37.98
2023-02-19T03:58:30.048Z,37.89
2023-02-19T03:59:40.568Z,37.80
2023-02-19T04:00:50.780Z,37.78
2023-02-19T04:01:59.588Z,37.59
2023-02-19T04:03:09.501Z,37.82
2023-02-19T04:04:21.300Z,37.85
2023-02-19T04:05:29.372Z,37.85
2023-02-19T04:06:34.634Z,37.84
2023-02-19T04:07:44.221Z,37.88
2023-02-19T04:08:51.513Z,37.88
2023-02-19T04:09:56.246Z,37.89
2023-02-19T04:11:01.498Z,37.88
2023-02-19T04:12:05.971Z,37.88
2023-02-19T04:13:16.812Z,37.97
2023-02-19T04:14:24.110Z,37.74
2023-02-19T04:15:31.618Z,37.98
2023-02-19T04:16:38.136Z,37.98
2023-02-19T04:17:48.655Z,38.12
2023-02-19T04:18:55.515Z,38.00
2023-02-19T04:20:04.077Z,38.19
2023-02-19T04:21:09.777Z,38.10
2023-02-19T04:22:14.054Z,38.12
2023-02-19T04:23:21.357Z,38.13
2023-02-19T04:24:28.846Z,38.20
2023-02-19T04:25:34.197Z,38.19
2023-02-19T04:26:38.634Z,38.19
2023-02-19T04:27:45.289Z,38.32
2023-02-19T04:28:48.908Z,38.36
2023-02-19T04:29:52.545Z,38.36
2023-02-19T04:30:56.305Z,38.40
2023-02-19T04:32:00.067Z,38.35
2023-02-19T04:33:03.731Z,38.58
2023-02-19T04:34:07.458Z,38.69
2023-02-19T04:35:12.868Z,38.79
2023-02-19T04:36:16.682Z,38.86
2023-02-19T04:37:20.245Z,38.92
2023-02-19T04:38:23.817Z,38.97
2023-02-19T04:39:27.589Z,38.98
2023-02-19T04:40:31.243Z,39.02
2023-02-19T04:41:35.096Z,39.04
2023-02-19T04:42:38.798Z,39.08
2023-02-19T04:43:42.484Z,39.09
2023-02-19T04:44:46.246Z,39.08
2023-02-19T04:45:49.902Z,39.08
2023-02-19T04:46:53.692Z,38.83
2023-02-19T04:47:58.869Z,39.11
2023-02-19T04:49:02.545Z,38.84
2023-02-19T04:50:06.722Z,38.71
2023-02-19T04:51:12.587Z,38.94
2023-02-19T04:52:16.475Z,39.04
2023-02-19T04:53:20.146Z,39.09
2023-02-19T04:54:23.968Z,39.08
2023-02-19T04:55:27.607Z,39.08
2023-02-19T04:56:31.264Z,38.83
2023-02-19T04:57:36.140Z,39.09
2023-02-19T04:58:41.042Z,39.04
2023-02-19T04:59:44.682Z,39.13
2023-02-19T05:00:51.900Z,39.18
2023-02-19T05:01:55.695Z,39.23
2023-02-19T05:02:59.462Z,39.22
2023-02-19T05:04:03.745Z,39.25
2023-02-19T05:05:07.662Z,39.27
2023-02-19T05:06:14.487Z,39.28
2023-02-19T05:07:18.175Z,39.28
2023-02-19T05:08:22.067Z,39.04
2023-02-19T05:09:25.745Z,39.33
2023-02-19T05:10:29.463Z,39.37
2023-02-19T05:11:33.166Z,39.40
2023-02-19T05:12:36.879Z,39.43
2023-02-19T05:13:41.345Z,39.35
2023-02-19T05:14:45.085Z,39.43
2023-02-19T05:15:57.162Z,39.45
2023-02-19T05:17:00.808Z,39.49
2023-02-19T05:18:04.534Z,39.49
2023-02-19T05:19:08.275Z,39.46
2023-02-19T05:20:12.397Z,39.50
2023-02-19T05:21:17.644Z,39.50
2023-02-19T05:22:21.415Z,39.48
2023-02-19T05:23:25.424Z,39.53
2023-02-19T05:24:29.125Z,39.56
2023-02-19T05:25:32.798Z,39.52
2023-02-19T05:26:36.713Z,39.55
2023-02-19T05:27:40.423Z,39.54
2023-02-19T05:28:44.072Z,39.46
2023-02-19T05:29:47.783Z,39.51
2023-02-19T05:30:53.433Z,39.52
2023-02-19T05:31:57.173Z,39.46
2023-02-19T05:33:00.844Z,39.41
2023-02-19T05:34:04.479Z,39.49
2023-02-19T05:35:08.427Z,39.49
2023-02-19T05:36:13.737Z,39.37
2023-02-19T05:37:19.058Z,39.50
2023-02-19T05:38:23.525Z,39.56
2023-02-19T05:39:27.217Z,39.62
2023-02-19T05:40:30.869Z,39.67
2023-02-19T05:41:35.168Z,39.63
2023-02-19T05:42:38.781Z,39.67
2023-02-19T05:43:43.679Z,39.72
2023-02-19T05:44:47.364Z,39.71
2023-02-19T05:45:51.092Z,39.76
2023-02-19T05:46:54.692Z,39.81
2023-02-19T05:47:58.385Z,39.87
2023-02-19T05:49:02.058Z,39.80
2023-02-19T05:50:06.200Z,39.88
2023-02-19T05:51:12.297Z,39.89
2023-02-19T05:52:16.058Z,39.75
2023-02-19T05:53:21.335Z,39.76
2023-02-19T05:54:24.972Z,39.75
2023-02-19T05:55:28.661Z,39.84
2023-02-19T05:56:33.964Z,39.89
2023-02-19T05:57:43.409Z,39.91
2023-02-19T05:58:47.372Z,39.97
2023-02-19T05:59:50.951Z,39.99
2023-02-19T06:00:54.689Z,39.92
2023-02-19T06:01:58.460Z,39.88
2023-02-19T06:03:02.889Z,39.74
2023-02-19T06:04:07.121Z,40.06
2023-02-19T06:05:11.291Z,40.09
2023-02-19T06:06:15.555Z,39.97
2023-02-19T06:07:19.293Z,40.12
2023-02-19T06:08:24.669Z,40.12
2023-02-19T06:09:28.330Z,40.16
2023-02-19T06:10:32.012Z,40.14
2023-02-19T06:11:36.469Z,40.24
2023-02-19T06:12:40.696Z,40.22
2023-02-19T06:13:44.427Z,40.03
2023-02-19T06:14:48.513Z,40.16
2023-02-19T06:15:52.120Z,40.20
2023-02-19T06:16:55.742Z,40.26
2023-02-19T06:17:59.592Z,40.34
2023-02-19T06:19:04.313Z,40.03
2023-02-19T06:20:08.649Z,40.27
2023-02-19T06:21:13.220Z,40.37
2023-02-19T06:22:17.439Z,40.40
2023-02-19T06:23:21.205Z,40.44
2023-02-19T06:24:26.551Z,40.42
2023-02-19T06:25:30.190Z,40.38
2023-02-19T06:26:33.865Z,40.41
2023-02-19T06:27:38.363Z,40.47
2023-02-19T06:28:43.108Z,40.42
2023-02-19T06:29:46.856Z,40.41
2023-02-19T06:30:51.566Z,40.35
2023-02-19T06:31:55.462Z,40.42
2023-02-19T06:32:59.153Z,40.42
2023-02-19T06:34:05.484Z,40.48
2023-02-19T06:35:09.345Z,40.36
2023-02-19T06:36:14.584Z,40.46
2023-02-19T06:37:18.279Z,40.49
2023-02-19T06:38:22.972Z,40.55
2023-02-19T06:39:28.619Z,40.60
2023-02-19T06:40:32.285Z,40.60
2023-02-19T06:41:35.997Z,40.59
2023-02-19T06:42:39.644Z,40.51
2023-02-19T06:43:43.612Z,40.55
2023-02-19T06:44:47.314Z,40.51
2023-02-19T06:45:51.010Z,40.53
2023-02-19T06:46:56.682Z,40.54
2023-02-19T06:48:00.332Z,40.58
2023-02-19T06:49:05.974Z,40.63
2023-02-19T06:50:10.009Z,40.72
2023-02-19T06:51:15.327Z,40.77
2023-02-19T06:52:18.901Z,40.76
2023-02-19T06:53:22.650Z,40.59
2023-02-19T06:54:27.942Z,40.79
2023-02-19T06:55:31.787Z,40.83
2023-02-19T06:56:36.906Z,40.61
2023-02-19T06:57:40.559Z,40.79
2023-02-19T06:58:44.204Z,40.82
2023-02-19T06:59:47.886Z,40.79
2023-02-19T07:00:51.619Z,40.78
2023-02-19T07:01:55.264Z,40.54
2023-02-19T07:02:58.926Z,40.68
2023-02-19T07:04:03.431Z,40.59
2023-02-19T07:05:07.517Z,40.52
2023-02-19T07:06:11.289Z,40.41
2023-02-19T07:07:14.881Z,40.41
2023-02-19T07:08:18.595Z,40.40
2023-02-19T07:09:22.247Z,40.11
2023-02-19T07:10:27.538Z,40.32
2023-02-19T07:11:32.449Z,40.39
2023-02-19T07:12:36.135Z,40.39
2023-02-19T07:13:39.948Z,40.36
2023-02-19T07:14:43.632Z,40.42
2023-02-19T07:15:47.281Z,40.48
2023-02-19T07:16:51.191Z,40.57
2023-02-19T07:17:54.761Z,40.65
2023-02-19T07:18:59.096Z,40.62
2023-02-19T07:20:02.795Z,40.53
2023-02-19T07:21:07.487Z,40.63
2023-02-19T07:22:11.202Z,40.61
2023-02-19T07:23:14.819Z,40.56
2023-02-19T07:24:18.706Z,40.45
2023-02-19T07:25:22.317Z,40.47
2023-02-19T07:26:27.629Z,40.48
2023-02-19T07:27:31.323Z,40.60
2023-02-19T07:28:34.919Z,40.61
2023-02-19T07:29:38.549Z,40.62
2023-02-19T07:30:42.205Z,40.57
2023-02-19T07:31:46.040Z,40.55
2023-02-19T07:32:49.698Z,40.54
2023-02-19T07:33:53.548Z,40.51
2023-02-19T07:34:57.155Z,40.45
2023-02-19T07:36:00.786Z,40.38
2023-02-19T07:37:05.274Z,40.42
2023-02-19T07:38:08.890Z,40.39
2023-02-19T07:39:14.577Z,40.52
2023-02-19T07:40:18.415Z,40.53
2023-02-19T07:41:22.004Z,40.42
2023-02-19T07:42:27.517Z,40.50
2023-02-19T07:43:33.787Z,40.47
2023-02-19T07:44:37.466Z,40.36
2023-02-19T07:45:41.125Z,40.43
2023-02-19T07:46:44.782Z,40.46
2023-02-19T07:47:48.556Z,40.50
2023-02-19T07:48:52.247Z,40.43
2023-02-19T07:49:55.874Z,40.24
2023-02-19T07:51:00.908Z,40.58
2023-02-19T07:52:04.676Z,40.62
2023-02-19T07:53:08.871Z,40.64
2023-02-19T07:54:12.503Z,40.55
2023-02-19T07:55:16.275Z,40.40
2023-02-19T07:56:20.725Z,40.56
2023-02-19T07:57:24.361Z,40.54
2023-02-19T07:58:29.927Z,40.62
2023-02-19T07:59:33.519Z,40.71
2023-02-19T08:00:37.194Z,40.78
2023-02-19T08:01:40.855Z,40.81
2023-02-19T08:02:44.500Z,40.87
2023-02-19T08:03:50.411Z,40.89
2023-02-19T08:04:54.214Z,40.92
2023-02-19T08:05:59.217Z,40.83
2023-02-19T08:07:02.841Z,40.96
2023-02-19T08:08:08.034Z,40.91
2023-02-19T08:09:14.284Z,40.93
2023-02-19T08:10:18.078Z,40.94
2023-02-19T08:11:21.693Z,40.99
2023-02-19T08:12:42.454Z,40.96
2023-02-19T08:13:49.563Z,40.90
2023-02-19T08:14:53.136Z,40.94
2023-02-19T08:16:36.759Z,40.85
2023-02-19T08:17:46.006Z,40.92
2023-02-19T08:19:00.138Z,40.90
2023-02-19T08:20:03.751Z,40.92
2023-02-19T08:21:10.620Z,40.78
2023-02-19T08:22:14.387Z,40.77
2023-02-19T08:23:18.801Z,40.67
2023-02-19T08:24:22.471Z,40.72
2023-02-19T08:25:26.182Z,40.67
2023-02-19T08:26:29.943Z,40.71
2023-02-19T08:27:33.564Z,40.63
2023-02-19T08:28:37.214Z,40.39
2023-02-19T08:29:42.634Z,40.40
2023-02-19T08:30:47.957Z,40.53
2023-02-19T08:31:51.908Z,40.51
2023-02-19T08:32:56.020Z,40.42
2023-02-19T08:33:59.693Z,40.58
2023-02-19T08:35:03.322Z,40.57
2023-02-19T08:36:08.650Z,40.61
2023-02-19T08:37:12.371Z,40.67
2023-02-19T08:38:16.261Z,40.59
2023-02-19T08:39:21.049Z,40.73
2023-02-19T08:40:25.284Z,40.78
2023-02-19T08:41:28.942Z,40.67
2023-02-19T08:42:32.632Z,40.67
2023-02-19T08:43:36.647Z,40.79
2023-02-19T08:44:41.922Z,40.80
2023-02-19T08:45:47.087Z,40.87
2023-02-19T08:46:50.766Z,40.82
2023-02-19T08:47:54.435Z,40.92
2023-02-19T08:48:58.063Z,40.90
2023-02-19T08:50:01.795Z,40.50
2023-02-19T08:51:08.462Z,40.89
2023-02-19T08:52:12.260Z,40.75
2023-02-19T08:53:15.904Z,40.93
2023-02-19T08:54:19.663Z,40.99
2023-02-19T08:55:23.373Z,41.03
2023-02-19T08:56:27.175Z,41.03
2023-02-19T08:57:30.840Z,40.99
2023-02-19T08:58:34.551Z,41.02
2023-02-19T08:59:38.236Z,40.95
2023-02-19T09:00:43.450Z,40.92
2023-02-19T09:01:47.073Z,40.89
2023-02-19T09:02:51.384Z,40.83
2023-02-19T09:03:55.106Z,40.93
2023-02-19T09:04:58.825Z,40.95
2023-02-19T09:06:02.430Z,40.99
2023-02-19T09:07:06.184Z,40.70
2023-02-19T09:08:10.236Z,41.00
2023-02-19T09:09:13.959Z,40.95
2023-02-19T09:10:17.701Z,40.97
2023-02-19T09:11:21.490Z,40.99
2023-02-19T09:12:25.558Z,40.97
2023-02-19T09:13:29.266Z,40.98
2023-02-19T09:14:33.386Z,40.98
2023-02-19T09:15:38.795Z,40.96
2023-02-19T09:16:44.084Z,40.96
2023-02-19T09:17:52.766Z,40.99
2023-02-19T09:18:56.381Z,40.96
2023-02-19T09:19:59.969Z,40.91
2023-02-19T09:21:05.206Z,40.89
2023-02-19T09:22:08.934Z,40.85
2023-02-19T09:23:12.708Z,40.83
2023-02-19T09:24:16.320Z,40.79
2023-02-19T09:25:19.991Z,40.75
2023-02-19T09:26:23.692Z,40.76
2023-02-19T09:27:27.324Z,40.77
2023-02-19T09:28:31.015Z,40.77
2023-02-19T09:29:34.620Z,40.71
2023-02-19T09:30:38.306Z,40.68
2023-02-19T09:31:43.701Z,40.71
2023-02-19T09:32:47.460Z,40.69
2023-02-19T09:33:51.109Z,40.74
2023-02-19T09:34:54.740Z,40.72
2023-02-19T09:36:00.465Z,40.68
2023-02-19T09:37:04.069Z,40.33
2023-02-19T09:38:07.650Z,40.63
2023-02-19T09:39:11.535Z,40.65
2023-02-19T09:40:15.562Z,40.63
2023-02-19T09:41:27.090Z,40.58
2023-02-19T09:42:33.291Z,40.55
2023-02-19T09:43:38.192Z,40.26
2023-02-19T09:44:44.548Z,40.20
2023-02-19T09:45:49.104Z,40.28
2023-02-19T09:46:55.745Z,40.22
2023-02-19T09:47:59.821Z,40.32
2023-02-19T09:49:08.521Z,40.35
2023-02-19T09:50:17.462Z,40.35
2023-02-19T09:51:21.415Z,40.37
2023-02-19T09:52:32.201Z,40.28
2023-02-19T09:53:44.918Z,40.31
2023-02-19T09:54:49.107Z,40.29
2023-02-19T09:55:54.249Z,40.26
2023-02-19T09:56:58.571Z,40.25
2023-02-19T09:58:09.316Z,40.24
2023-02-19T09:59:20.903Z,40.11
2023-02-19T10:00:27.373Z,40.03
2023-02-19T10:01:38.309Z,40.11
2023-02-19T10:02:43.616Z,40.10
2023-02-19T10:03:50.132Z,40.07
2023-02-19T10:04:54.483Z,40.04
2023-02-19T10:05:59.811Z,40.02
2023-02-19T10:07:03.690Z,40.01
2023-02-19T10:08:13.440Z,39.91
2023-02-19T10:09:22.986Z,39.74
2023-02-19T10:10:31.003Z,39.91
2023-02-19T10:11:34.788Z,39.87
2023-02-19T10:12:38.414Z,39.89
2023-02-19T10:13:46.724Z,39.80
2023-02-19T10:14:53.730Z,39.81
2023-02-19T10:15:59.497Z,39.77
2023-02-19T10:17:06.196Z,39.79
2023-02-19T10:18:11.656Z,39.78
2023-02-19T10:19:16.155Z,39.70
2023-02-19T10:20:22.244Z,39.71
2023-02-19T10:21:27.919Z,39.72
2023-02-19T10:22:33.330Z,39.70
2023-02-19T10:23:37.122Z,39.44
2023-02-19T10:24:44.400Z,39.70
2023-02-19T10:26:00.149Z,39.70
2023-02-19T10:27:04.082Z,39.61
2023-02-19T10:28:13.732Z,39.72
2023-02-19T10:29:17.710Z,39.71
2023-02-19T10:30:24.799Z,39.69
2023-02-19T10:31:32.351Z,39.70
2023-02-19T10:32:36.279Z,39.71
2023-02-19T10:33:50.781Z,39.65
2023-02-19T10:35:11.471Z,39.56
2023-02-19T10:36:26.372Z,39.59
2023-02-19T10:37:30.613Z,39.59
2023-02-19T10:38:36.184Z,39.51
2023-02-19T10:39:45.857Z,39.54
2023-02-19T10:40:51.751Z,39.53
2023-02-19T10:41:55.700Z,39.52
2023-02-19T10:43:02.356Z,39.46
2023-02-19T10:44:11.525Z,39.09
2023-02-19T10:45:22.646Z,39.03
2023-02-19T10:46:28.880Z,39.00
2023-02-19T10:47:33.496Z,38.93
2023-02-19T10:48:39.396Z,38.91
2023-02-19T10:49:46.213Z,38.86
2023-02-19T10:50:54.474Z,38.79
2023-02-19T10:52:04.663Z,38.74
2023-02-19T10:53:22.226Z,38.66
2023-02-19T10:54:32.078Z,38.64
2023-02-19T10:55:38.056Z,38.44
2023-02-19T10:56:42.208Z,38.62
2023-02-19T10:57:46.111Z,38.57
2023-02-19T10:58:49.945Z,38.59
2023-02-19T10:59:55.242Z,38.55
2023-02-19T11:01:14.039Z,38.51
2023-02-19T11:02:18.966Z,38.41
2023-02-19T11:03:23.725Z,38.41
2023-02-19T11:04:41.445Z,38.47
2023-02-19T11:06:03.359Z,38.46
2023-02-19T11:07:14.907Z,38.44
2023-02-19T11:08:23.776Z,38.48
2023-02-19T11:09:34.050Z,38.09
2023-02-19T11:10:41.449Z,38.49
2023-02-19T11:11:45.284Z,38.46
2023-02-19T11:12:51.015Z,38.08
2023-02-19T11:13:57.716Z,38.50
2023-02-19T11:15:14.254Z,38.48
2023-02-19T11:16:18.379Z,38.49
2023-02-19T11:17:26.026Z,38.47
2023-02-19T11:18:31.936Z,38.46
2023-02-19T11:19:39.937Z,38.16
2023-02-19T11:20:51.005Z,38.34
2023-02-19T11:21:57.192Z,38.16
2023-02-19T11:23:03.085Z,38.39
2023-02-19T11:24:07.405Z,38.37
2023-02-19T11:25:23.680Z,38.35
2023-02-19T11:26:32.445Z,38.32
2023-02-19T11:27:36.305Z,38.26
2023-02-19T11:28:41.265Z,38.09
2023-02-19T11:29:45.043Z,38.33
2023-02-19T11:30:49.318Z,38.31
2023-02-19T11:31:53.376Z,38.30
2023-02-19T11:32:57.358Z,38.31
2023-02-19T11:34:02.567Z,38.32
2023-02-19T11:35:17.924Z,38.32
2023-02-19T11:36:33.446Z,38.31
2023-02-19T11:37:53.883Z,38.27
2023-02-19T11:38:59.882Z,38.24
2023-02-19T11:40:03.794Z,38.31
2023-02-19T11:41:15.082Z,38.27
2023-02-19T11:42:41.894Z,38.26
2023-02-19T11:44:06.854Z,38.18
2023-02-19T11:45:23.403Z,38.23
2023-02-19T11:46:34.849Z,38.22
2023-02-19T11:47:59.749Z,38.21
2023-02-19T11:49:21.843Z,38.14
2023-02-19T11:50:33.838Z,38.16
2023-02-19T11:52:05.144Z,38.17
2023-02-19T11:53:18.080Z,38.15
2023-02-19T11:54:44.728Z,38.13
2023-02-19T11:56:00.026Z,38.11
2023-02-19T11:57:12.493Z,38.09
2023-02-19T11:58:45.275Z,38.06
2023-02-19T11:59:56.587Z,38.05
2023-02-19T12:01:07.797Z,38.05
2023-02-19T12:02:41.910Z,38.04
2023-02-19T12:04:09.300Z,37.94
2023-02-19T12:05:40.475Z,38.01
2023-02-19T12:06:54.991Z,37.97
2023-02-19T12:08:18.308Z,38.01
2023-02-19T12:09:38.633Z,37.99
2023-02-19T12:11:00.114Z,38.01
2023-02-19T12:12:21.351Z,38.00
2023-02-19T12:13:33.036Z,37.85
2023-02-19T12:14:52.317Z,37.92
2023-02-19T12:16:07.481Z,37.94
2023-02-19T12:17:20.408Z,37.81
2023-02-19T12:18:43.826Z,37.94
2023-02-19T12:20:02.724Z,37.94
2023-02-19T12:21:19.465Z,37.80
2023-02-19T12:22:33.540Z,37.94
2023-02-19T12:24:06.610Z,37.94
2023-02-19T12:25:26.455Z,37.92
2023-02-19T12:26:32.427Z,37.88
2023-02-19T12:27:50.267Z,37.86
2023-02-19T12:29:12.024Z,37.87
2023-02-19T12:30:43.418Z,37.83
2023-02-19T12:32:07.476Z,37.85
2023-02-19T12:33:51.882Z,37.79
2023-02-19T12:35:39.806Z,37.81
2023-02-19T12:36:56.057Z,37.80
2023-02-19T12:38:11.283Z,37.80
2023-02-19T12:39:25.284Z,37.75
2023-02-19T12:40:45.033Z,37.78
2023-02-19T12:41:58.788Z,37.81
2023-02-19T12:43:13.179Z,37.82
2023-02-19T12:44:23.979Z,37.84
2023-02-19T12:45:34.364Z,37.86
2023-02-19T12:46:42.117Z,37.96
2023-02-19T12:48:00.493Z,38.07
2023-02-19T12:49:12.140Z,37.96
2023-02-19T12:50:21.156Z,38.13
2023-02-19T12:51:28.823Z,38.25
2023-02-19T12:52:37.530Z,38.26
2023-02-19T12:53:49.016Z,38.23
2023-02-19T12:54:57.339Z,38.10
2023-02-19T12:56:05.763Z,38.13
2023-02-19T12:57:14.512Z,38.09
2023-02-19T12:58:30.722Z,38.09
2023-02-19T12:59:49.260Z,38.07
2023-02-19T13:00:57.830Z,38.07
2023-02-19T13:02:13.550Z,38.00
2023-02-19T13:03:23.667Z,37.98
2023-02-19T13:04:35.406Z,37.99
2023-02-19T13:05:46.279Z,37.98
2023-02-19T13:06:55.228Z,37.98
2023-02-19T13:08:09.362Z,37.99
2023-02-19T13:09:18.036Z,37.96
2023-02-19T13:10:31.907Z,37.96
2023-02-19T13:11:41.095Z,37.92
2023-02-19T13:12:46.618Z,37.94
2023-02-19T13:13:55.418Z,37.86
2023-02-19T13:15:04.279Z,37.83
2023-02-19T13:16:10.496Z,37.90
2023-02-19T13:17:25.228Z,37.87
2023-02-19T13:18:35.481Z,37.86
2023-02-19T13:19:43.077Z,37.85
2023-02-19T13:20:49.250Z,37.83
2023-02-19T13:22:04.328Z,37.85
2023-02-19T13:23:14.373Z,37.84
2023-02-19T13:24:26.990Z,37.83
2023-02-19T13:25:45.215Z,37.78
2023-02-19T13:27:07.216Z,37.70
2023-02-19T13:28:22.552Z,37.79
2023-02-19T13:29:47.606Z,37.79
2023-02-19T13:31:12.959Z,37.79
2023-02-19T13:32:34.067Z,37.75
2023-02-19T13:33:49.371Z,37.75
2023-02-19T13:35:04.666Z,37.74
2023-02-19T13:36:14.436Z,37.72
2023-02-19T13:37:19.085Z,37.73
2023-02-19T13:38:23.576Z,37.68
2023-02-19T13:39:29.235Z,37.66
2023-02-19T13:40:38.201Z,37.18
2023-02-19T13:41:43.420Z,37.67
2023-02-19T13:42:54.921Z,37.64
2023-02-19T13:44:02.788Z,37.61
2023-02-19T13:45:07.906Z,37.58
2023-02-19T13:46:15.149Z,37.54
2023-02-19T13:47:52.955Z,37.54
2023-02-19T13:49:46.158Z,37.61
2023-02-19T13:50:50.092Z,37.51
2023-02-19T13:51:54.803Z,37.59
2023-02-19T13:52:58.918Z,37.59
2023-02-19T13:54:16.035Z,37.58
2023-02-19T13:55:50.148Z,37.58
2023-02-19T13:57:25.934Z,37.59
2023-02-19T13:58:53.811Z,37.58
2023-02-19T13:59:58.571Z,37.58
2023-02-19T14:01:03.774Z,37.56
2023-02-19T14:02:13.625Z,37.56
2023-02-19T14:03:31.387Z,37.59
2023-02-19T14:04:45.253Z,37.57
2023-02-19T14:06:03.607Z,37.59
2023-02-19T14:07:36.391Z,37.56
2023-02-19T14:08:52.141Z,37.57
2023-02-19T14:09:57.694Z,37.54
2023-02-19T14:11:03.310Z,37.50
2023-02-19T14:12:19.332Z,37.55
2023-02-19T14:13:57.474Z,37.55
2023-02-19T14:15:41.133Z,37.52
2023-02-19T14:16:57.894Z,37.53
2023-02-19T14:18:04.464Z,37.54
2023-02-19T14:19:15.666Z,37.55
2023-02-19T14:20:44.190Z,37.67
2023-02-19T14:21:48.055Z,37.68
2023-02-19T14:23:23.583Z,37.73
2023-02-19T14:24:29.991Z,37.75
2023-02-19T14:25:41.593Z,37.81
2023-02-19T14:26:47.310Z,37.83
2023-02-19T14:27:52.986Z,37.84
2023-02-19T14:28:59.018Z,37.82
2023-02-19T14:30:03.900Z,37.76
2023-02-19T14:31:32.002Z,37.82
2023-02-19T14:32:36.143Z,37.80